Airfield :
LOGIN :

Register | Disclaimer

   EN    FR    IT 

 










Legend :    VFR   Marginal VFR   IFR   Intensive IFR   Very Intensive IFR
Visi :
Ceiling :
>= 8 km
>= 3000ft
5 to 8 km
1000 to 3000 ft
1500m to 5 km
500 to 1000 ft
800 to 1500m
200 to 500 ft
< 800m
< 200 ft
Symbols :   Thunderstorms  Fog  Heavy snow  Heavy precipitations  Wind > 20 kt
SIGMETs :     Misc.  Thunderstorms  Icing  Turbulence  Mountain Waves  Volcanic Ashes







- Airport Elevation : 614 ft
- IATA code : CRL


EBCI - Charleroi

CURRENT METAR :
  • 250820Z 30011KT 260V320 9999 FEW018 SCT025 BKN040 06/02 Q1025 NOSIG

EXPIRED METARs :
  • 250750Z 31008KT 240V350 9999 FEW018 SCT025 BKN040 06/02 Q1025 NOSIG
  • 250720Z 31007KT 280V340 9999 SCT022 06/02 Q1025 NOSIG
  • 250650Z 29006KT 260V320 9999 FEW022 05/02 Q1024 NOSIG
  • 250620Z 28005KT 240V310 9999 FEW014 03/02 Q1024 NOSIG
  • 250550Z 26005KT 9999 FEW014 03/02 Q1024 NOSIG
  • 250520Z 28006KT 240V320 9999 FEW015 SCT026 03/02 Q1024 NOSIG

TAF TAF EBCI
Valid from the 25 at 06:00 until the 26 at 12:00 UTC


250520Z 2506/2612 28009KT 9999 SCT025
PROB30
TEMPO 2506/2512 SHRA
BECMG 2508/2510 33016G28KT
BECMG 2516/2518 33011KT
PROB30
TEMPO 2603/2608 27005KT
No reported NOTAMs for that airfield.



MET'MAP, your aeronautical weather chart ! - Copyright ORBIFLY December 2007 - Disclaimer

ORBIFLY MET'MAP TEAM :

Programming & Development : Alexandra Zaïnal
Concept & Development : Baudouin d'Aumeries
Co-Development & Prog : Marc-Olivier Méhu
Technical & hardware support : Manuel Goepfert

Contact : metmap@orbifly.com




SOURCES & CREDITS :

   NOAA